Latest Weather Observations for Inverell RS

IDN60801

Issued at 7:32 pm EST Sunday 20 August 2017 (issued every 30 minutes, with the page automatically refreshed every 10 minutes)

About weather observations | Map of weather stations | Latest weather observations for NSW | Other Formats
Station Details ID: 056018 Name: INVERELL RESEARCH CENTRE Lat: -29.78 Lon: 151.08 Height: 664.0 m
Data from the previous 72 hours. | See also: Recent months at Inverell RS
Date/Time
EST
Temp
°C
App
Temp
°C
Dew
Point
°C
Rel
Hum
%
Delta-T
°C
Wind Press
QNH
hPa
Press
MSL
hPa
Rain since
9am
mm
Dir  Spd
km/h
Gust
km/h
Spd
kts
Gust
kts
20/07:30pm 9.9 5.5 0.1 50 4.1 SW 13 17 7 9 1019.8 - 0.0
20/07:00pm 10.8 6.9 -1.5 42 5.0 SSW 9 13 5 7 1019.8 - 0.0
20/06:30pm 10.2 6.0 -0.7 46 4.5 WSW 11 13 6 7 1019.3 - 0.0
20/06:00pm 10.6 6.5 -0.1 47 4.5 WSW 11 13 6 7 1019.1 1019.4 0.0
20/05:30pm 12.3 9.0 -0.1 42 5.3 SW 7 13 4 7 1019.0 - 0.0
20/05:00pm 13.5 9.7 -0.9 37 6.1 S 9 15 5 8 1019.0 - 0.0
20/04:30pm 14.8 10.5 -1.5 32 6.9 S 11 19 6 10 1019.0 - 0.0
20/04:00pm 15.5 11.4 -3.2 27 7.7 SW 9 15 5 8 1018.7 - 0.0
20/03:30pm 15.3 10.7 -4.1 26 7.8 SW 11 17 6 9 1018.5 - 0.0
20/03:00pm 15.2 10.2 -4.3 26 7.8 SSW 13 26 7 14 1018.5 1018.7 0.0
20/02:30pm 15.7 10.9 -2.8 28 7.7 S 13 20 7 11 1018.7 - 0.0
20/02:00pm 14.9 10.1 -2.8 29 7.3 S 13 24 7 13 1019.2 - 0.0
20/01:30pm 15.6 10.6 -1.5 31 7.3 SSE 15 26 8 14 1019.3 - 0.0
20/01:00pm 15.2 10.1 -2.3 30 7.3 SSE 15 24 8 13 1019.6 - 0.0
20/12:30pm 14.8 9.7 -2.2 31 7.1 S 15 24 8 13 1019.9 - 0.0
20/12:00pm 14.5 9.7 -2.4 31 7.0 S 13 19 7 10 1020.3 1020.6 0.0
20/11:30am 14.1 9.0 -2.0 33 6.7 S 15 26 8 14 1020.8 - 0.0
20/11:00am 13.5 8.8 -2.0 34 6.4 SSE 13 24 7 13 1021.1 - 0.0
20/10:30am 12.4 7.3 -1.7 37 5.8 SE 15 20 8 11 1021.7 - 0.0
20/10:00am 10.7 5.6 -2.0 41 5.1 SSE 15 22 8 12 1021.9 - 0.0
20/09:30am 9.5 4.0 -2.1 44 4.6 S 17 24 9 13 1022.2 - 0.0
20/09:00am 8.1 3.0 -1.9 49 3.9 SSE 15 22 8 12 1022.4 1022.6 0.0
20/08:30am 6.8 0.9 -2.0 53 3.4 SSE 19 30 10 16 1022.5 - 0.0
20/08:00am 5.5 0.3 -2.5 56 3.0 S 15 22 8 12 1022.2 - 0.0
20/07:30am 4.5 -0.8 -3.2 57 2.8 S 15 22 8 12 1022.0 - 0.0
20/07:00am 3.1 -2.2 -3.4 62 2.3 S 15 24 8 13 1021.9 - 0.0
20/06:30am 2.2 - - - - S 9 17 5 9 1021.5 - 0.0
20/06:00am 0.7 - - - - SW 13 19 7 10 1021.2 1021.4 0.0
20/05:30am 0.4 - - - - SW 11 15 6 8 1021.1 - 0.0
20/05:00am 0.6 - - - - SW 9 13 5 7 1020.7 - 0.0
20/04:30am 0.9 - - - - SSW 9 11 5 6 1020.3 - 0.0
20/04:00am 1.2 - - - - S 9 13 5 7 1019.9 - 0.0
20/03:30am 2.1 - - - - SSW 9 13 5 7 1019.8 - 0.0
20/03:00am 2.8 -1.8 -4.1 60 2.4 S 11 19 6 10 1019.8 1020.0 0.0
20/02:30am 3.1 -1.5 -4.1 59 2.5 S 11 19 6 10 1020.0 - 0.0
20/02:00am 3.4 -1.9 -4.0 58 2.6 SSW 15 22 8 12 1020.0 - 0.0
20/01:30am 3.5 -1.1 -3.9 58 2.6 SSW 11 17 6 9 1019.9 - 0.0
20/01:00am 3.7 -1.3 -4.3 56 2.8 SSW 13 19 7 10 1020.1 - 0.0
20/12:30am 3.3 -0.9 -4.1 58 2.6 WSW 9 13 5 7 1020.3 - 0.0
20/12:00am 4.1 -0.5 -4.5 53 3.0 SSW 11 17 6 9 1020.1 1020.3 0.0
 
Date/Time
EST
Temp
°C
App
Temp
°C
Dew
Point
°C
Rel
Hum
%
Delta-T
°C
Wind Press
QNH
hPa
Press
MSL
hPa
Rain since
9am
mm
Dir  Spd
km/h
Gust
km/h
Spd
kts
Gust
kts
19/11:30pm 2.9 -1.0 -4.3 59 2.5 W 7 9 4 5 1020.4 - 0.0
19/11:00pm 4.6 -0.8 -4.9 50 3.3 S 15 20 8 11 1020.6 - 0.0
19/10:30pm 5.0 0.7 -5.0 48 3.5 S 9 15 5 8 1020.7 - 0.0
19/10:00pm 5.6 1.6 -5.3 45 3.8 S 7 19 4 10 1020.4 - 0.0
19/09:30pm 5.5 1.1 -5.8 44 3.9 S 9 15 5 8 1020.2 - 0.0
19/09:00pm 5.9 2.0 -6.4 41 4.2 W 6 7 3 4 1020.0 1020.1 0.0
19/08:30pm 6.0 2.1 -6.7 39 4.3 S 6 9 3 5 1019.8 - 0.0
19/08:00pm 6.4 2.3 -6.4 39 4.4 S 7 13 4 7 1019.6 - 0.0
19/07:30pm 6.8 3.3 -6.1 39 4.5 SSE 4 9 2 5 1019.7 - 0.0
19/07:00pm 6.7 3.7 -5.5 41 4.3 SW 2 11 1 6 1019.4 - 0.0
19/06:30pm 8.0 3.9 -6.6 35 5.1 WSW 7 15 4 8 1019.0 - 0.0
19/06:00pm 8.6 3.6 -7.7 31 5.6 S 11 22 6 12 1018.4 1018.6 0.0
19/05:30pm 9.3 4.0 -7.8 29 5.9 S 13 24 7 13 1018.1 - 0.0
19/05:00pm 9.9 4.5 -8.5 26 6.3 S 13 26 7 14 1017.8 - 0.0
19/04:30pm 10.7 5.7 -8.3 25 6.6 S 11 20 6 11 1017.6 - 0.0
19/04:00pm 11.1 5.3 -8.4 24 6.8 S 15 26 8 14 1017.2 - 0.0
19/03:30pm 11.5 6.2 -7.5 25 6.8 S 13 30 7 16 1017.1 - 0.0
19/03:00pm 10.9 4.2 -8.3 25 6.7 S 20 33 11 18 1017.0 1017.2 0.0
19/02:30pm 10.8 4.7 -7.5 27 6.5 SSW 17 33 9 18 1017.1 - 0.0
19/02:00pm 11.1 5.4 -7.4 26 6.6 SW 15 26 8 14 1017.2 - 0.0
19/01:30pm 10.9 3.9 -6.8 28 6.4 S 22 30 12 16 1017.1 - 0.0
19/01:00pm 10.5 4.4 -7.7 27 6.4 SW 17 32 9 17 1017.5 - 0.0
19/12:30pm 11.0 4.3 -10.3 21 7.1 SSW 19 33 10 18 1017.6 - 0.0
19/12:00pm 10.6 5.4 -6.1 30 6.1 SSW 13 35 7 19 1018.0 1018.2 0.0
19/11:30am 9.9 4.1 -4.4 36 5.4 SSW 17 28 9 15 1018.2 - 0.0
19/11:00am 9.5 4.2 -3.6 39 5.0 SSW 15 26 8 14 1018.6 - 0.0
19/10:30am 9.1 3.9 -3.1 42 4.7 S 15 28 8 15 1019.0 - 0.0
19/10:00am 8.2 3.7 -3.1 45 4.3 SSW 11 28 6 15 1019.0 - 0.0
19/09:30am 7.5 2.8 -2.0 51 3.7 S 13 32 7 17 1019.0 - 0.0
19/09:00am 7.1 2.5 -1.3 55 3.3 S 13 26 7 14 1018.8 1018.9 0.0
19/08:30am 6.2 1.2 -1.5 58 3.0 S 15 35 8 19 1018.5 - 0.0
19/08:00am 5.3 0.6 -1.5 61 2.6 S 13 30 7 16 1018.3 - 0.0
19/07:30am 5.1 0.9 -0.8 65 2.3 S 11 17 6 9 1017.8 - 0.0
19/07:00am 4.2 0.4 -1.0 69 2.0 S 9 15 5 8 1017.7 - 0.0
19/06:30am 3.8 -0.1 -1.2 70 1.9 S 9 17 5 9 1017.6 - 0.0
19/06:00am 4.5 0.2 -1.9 63 2.4 SSW 11 26 6 14 1017.5 1017.6 0.0
19/05:30am 4.1 0.6 -1.4 67 2.1 S 7 15 4 8 1017.4 - 0.0
19/05:00am 3.7 0.7 -1.6 68 2.0 S 4 13 2 7 1017.1 - 0.0
19/04:30am 4.1 1.4 -2.1 64 2.3 NE 2 9 1 5 1016.8 - 0.0
19/04:00am 4.9 1.5 -2.0 61 2.6 SSE 6 11 3 6 1016.9 - 0.0
19/03:30am 5.1 2.0 -2.4 58 2.8 ESE 4 9 2 5 1016.9 - 0.0
19/03:00am 5.5 2.0 -2.5 56 3.0 S 6 13 3 7 1017.0 1017.2 0.0
19/02:30am 5.9 1.8 -2.9 53 3.3 SSE 9 17 5 9 1017.4 - 0.0
19/02:00am 6.4 1.5 -3.6 49 3.7 S 13 24 7 13 1017.5 - 0.0
19/01:30am 6.5 2.0 -3.5 49 3.7 SSE 11 19 6 10 1017.6 - 0.0
19/01:00am 6.4 2.6 -3.6 49 3.7 S 7 11 4 6 1017.8 - 0.0
19/12:30am 6.7 3.1 -3.5 48 3.8 SE 6 11 3 6 1017.8 - 0.0
19/12:00am 7.2 3.5 -4.6 43 4.3 ESE 6 11 3 6 1017.8 1018.0 0.0
 
Date/Time
EST
Temp
°C
App
Temp
°C
Dew
Point
°C
Rel
Hum
%
Delta-T
°C
Wind Press
QNH
hPa
Press
MSL
hPa
Rain since
9am
mm
Dir  Spd
km/h
Gust
km/h
Spd
kts
Gust
kts
18/11:30pm 7.4 3.5 -4.3 43 4.3 E 7 13 4 7 1017.9 - 0.0
18/11:00pm 7.1 3.5 -4.0 45 4.1 E 6 13 3 7 1018.1 - 0.0
18/10:30pm 7.4 3.7 -4.3 43 4.3 E 6 9 3 5 1018.2 - 0.0
18/10:00pm 7.8 4.0 -3.7 44 4.3 NNE 7 15 4 8 1018.2 - 0.0
18/09:30pm 8.2 4.4 -3.4 44 4.4 NE 7 11 4 6 1018.1 - 0.0
18/09:00pm 8.5 4.9 -3.7 42 4.6 N 6 9 3 5 1018.0 1018.2 0.0
18/08:30pm 8.5 4.7 -4.1 40 4.7 N 7 13 4 7 1017.8 - 0.0
18/08:00pm 9.0 5.4 -4.0 39 4.9 NNW 6 9 3 5 1017.5 - 0.0
18/07:30pm 9.5 5.3 -3.9 38 5.1 NW 9 19 5 10 1017.1 - 0.0
18/07:00pm 10.2 5.9 -4.7 34 5.6 W 9 15 5 8 1016.8 - 0.0
18/06:30pm 10.5 6.1 -5.4 32 5.9 WNW 9 22 5 12 1016.4 - 0.0
18/06:00pm 11.1 6.0 -5.5 31 6.2 WNW 13 33 7 18 1016.0 1016.1 0.0
18/05:30pm 11.7 6.9 -6.1 28 6.6 WNW 11 24 6 13 1015.6 - 0.0
18/05:00pm 12.6 7.8 -5.6 27 6.9 W 11 19 6 10 1015.1 - 0.0
18/04:30pm 13.5 8.0 -5.5 26 7.3 WNW 15 30 8 16 1014.7 - 0.0
18/04:00pm 14.3 8.8 -5.6 25 7.7 WNW 15 30 8 16 1014.4 - 0.0
18/03:30pm 14.5 8.6 -5.7 24 7.8 W 17 35 9 19 1014.3 - 0.0
18/03:00pm 14.6 8.8 -5.0 25 7.7 W 17 39 9 21 1014.3 1014.4 0.0
18/02:30pm 14.6 8.2 -5.0 25 7.7 W 20 37 11 20 1014.3 - 0.0
18/02:00pm 14.8 9.1 -3.7 27 7.5 W 17 32 9 17 1014.3 - 0.0
18/01:30pm 14.7 9.5 -3.1 29 7.3 W 15 28 8 15 1014.4 - 0.0
18/01:00pm 14.3 8.0 -5.6 25 7.7 W 19 35 10 19 1014.6 - 0.0
18/12:30pm 14.7 7.7 -7.2 21 8.2 W 22 37 12 20 1014.9 - 0.0
18/12:00pm 14.7 9.2 -5.7 24 7.9 W 15 30 8 16 1015.3 1015.6 0.0
18/11:30am 14.4 8.1 -5.5 25 7.7 W 19 33 10 18 1015.9 - 0.0
18/11:00am 14.6 8.8 -5.0 25 7.7 W 17 32 9 17 1016.2 - 0.0
18/10:30am 14.2 8.7 -2.2 32 6.8 W 17 32 9 17 1016.4 - 0.0
18/10:00am 14.4 9.5 -0.4 36 6.4 W 15 30 8 16 1016.5 - 0.0
18/09:30am 13.6 9.0 -1.0 36 6.2 W 13 30 7 16 1016.6 - 0.0
18/09:00am 12.8 8.5 -1.7 36 6.0 W 11 19 6 10 1016.6 1016.8 0.0
18/08:30am 11.9 8.1 -1.1 40 5.4 W 9 15 5 8 1016.4 - 0.0
18/08:00am 7.6 4.7 1.5 65 2.6 SE 6 7 3 4 1016.1 - 0.0
18/07:30am 5.8 3.9 0.4 68 2.2 CALM 0 0 0 0 1015.9 - 0.0
18/07:00am 2.9 0.1 -0.2 80 1.2 ESE 4 9 2 5 1015.6 - 0.0
18/06:30am 1.8 -0.4 -1.2 80 1.1 CALM 0 0 0 0 1015.4 - 0.0
18/06:00am 3.4 0.0 -2.0 68 2.0 S 6 7 3 4 1015.1 1015.1 0.0
18/05:30am 2.8 -0.1 -1.2 75 1.5 WNW 4 7 2 4 1014.8 - 0.0
18/05:00am 3.1 1.0 -0.8 75 1.5 CALM 0 0 0 0 1014.6 - 0.0
18/04:30am 4.5 2.4 -0.9 68 2.1 CALM 0 0 0 0 1014.5 - 0.0
18/04:00am 4.7 1.5 -0.4 69 2.0 SSE 6 7 3 4 1014.4 - 0.0
18/03:30am 3.9 0.1 -0.5 73 1.7 SSE 9 9 5 5 1014.6 - 0.0
18/03:00am 4.0 0.6 -0.4 73 1.7 SE 7 7 4 4 1014.6 1014.7 0.0
18/02:30am 4.6 2.6 -0.2 71 1.9 CALM 0 0 0 0 1014.8 - 0.0
18/02:00am 5.3 3.3 -0.2 67 2.2 CALM 0 0 0 0 1015.0 - 0.0
18/01:30am 5.0 1.8 -0.3 68 2.1 SSE 6 7 3 4 1015.1 - 0.0
18/01:00am 5.6 2.5 0.1 68 2.2 SSE 6 7 3 4 1015.1 - 0.0
18/12:30am 5.9 2.8 0.2 67 2.3 SSE 6 7 3 4 1015.3 - 0.0
18/12:00am 6.3 4.4 0.4 66 2.4 CALM 0 0 0 0 1015.2 1015.4 0.0
 
Date/Time
EST
Temp
°C
App
Temp
°C
Dew
Point
°C
Rel
Hum
%
Delta-T
°C
Wind Press
QNH
hPa
Press
MSL
hPa
Rain since
9am
mm
Dir  Spd
km/h
Gust
km/h
Spd
kts
Gust
kts
17/11:30pm 6.6 4.6 -0.1 62 2.7 CALM 0 0 0 0 1015.3 - 0.0
17/11:00pm 7.6 5.6 -0.3 57 3.2 CALM 0 0 0 0 1015.3 - 0.0
17/10:30pm 7.4 5.5 0.4 61 2.9 CALM 0 0 0 0 1015.3 - 0.0
17/10:00pm 8.6 6.6 -0.1 54 3.6 CALM 0 0 0 0 1015.3 - 0.0
17/09:30pm 8.3 6.4 0.4 57 3.3 CALM 0 0 0 0 1015.4 - 0.0
17/09:00pm 9.2 7.3 0.4 54 3.7 CALM 0 0 0 0 1015.3 1015.5 0.0
17/08:30pm 10.0 6.9 0.3 51 4.1 W 6 9 3 5 1015.4 - 0.0
17/08:00pm 9.9 7.9 0.1 50 4.1 CALM 0 0 0 0 1015.2 - 0.0

Other Formats:

Comma delimited format used in spreadsheet applications
http://www.bom.gov.au/fwo/IDN60801/IDN60801.94541.axf

JavaScript Object Notation format (JSON) in row-major order
http://www.bom.gov.au/fwo/IDN60801/IDN60801.94541.json